Morton, Pennsylvania
Current Conditions -  °F | °C
As of 5:54 PM on Friday 31 Oct 2014 (Local Time) from KPHL Reporting Station
Overcast Overcast  
Wind Chill: 51°   Ceiling: 3100
Heat Index: 51°   Visibility: 10mi
Dew Point: 36°   Wind: 8mph
Humidity: 56%   Direction: 60°ENE
Pressure: 29.89"   Gusts: NA
Location:  39.91°N, 75.32°W
Report Text: KPHL 312154Z 06007KT 10SM BKN031 OVC044 11/02 A2989 RMK AO2 SLP121 T01060022 $
Loading
Personal Weather Stations






























Interactive Weather Map
Tropical Storm Tracking
New forecast layout! Learn more

10-Day Weather Forecast

Advertisements
Track Severe Weather on mobile